sensor_id;sensor_type;location;lat;lon;timestamp;pressure;altitude;pressure_sealevel;temperature;humidity
34235;BME280;20500;49.856;20.290;2022-09-01T00:00:53;99246.66;;;13.43;69.40
34235;BME280;20500;49.856;20.290;2022-09-01T00:03:57;99247.53;;;13.38;69.38
34235;BME280;20500;49.856;20.290;2022-09-01T00:07:05;99242.11;;;13.34;69.43
34235;BME280;20500;49.856;20.290;2022-09-01T00:10:09;99236.80;;;13.32;69.54
34235;BME280;20500;49.856;20.290;2022-09-01T00:13:13;99231.88;;;13.28;69.45
34235;BME280;20500;49.856;20.290;2022-09-01T00:16:18;99232.99;;;13.25;69.55
34235;BME280;20500;49.856;20.290;2022-09-01T00:19:23;99235.31;;;13.21;69.58
34235;BME280;20500;49.856;20.290;2022-09-01T00:22:27;99233.85;;;13.17;69.68
34235;BME280;20500;49.856;20.290;2022-09-01T00:25:31;99236.31;;;13.15;69.75
34235;BME280;20500;49.856;20.290;2022-09-01T00:28:35;99238.52;;;13.12;69.65
34235;BME280;20500;49.856;20.290;2022-09-01T00:31:40;99236.89;;;13.11;69.82
34235;BME280;20500;49.856;20.290;2022-09-01T00:34:44;99234.29;;;13.10;69.80
34235;BME280;20500;49.856;20.290;2022-09-01T00:37:48;99235.35;;;13.07;69.76
34235;BME280;20500;49.856;20.290;2022-09-01T00:40:52;99234.58;;;13.06;69.82
34235;BME280;20500;49.856;20.290;2022-09-01T00:43:57;99234.16;;;13.06;69.90
34235;BME280;20500;49.856;20.290;2022-09-01T00:47:02;99236.02;;;13.05;69.86
34235;BME280;20500;49.856;20.290;2022-09-01T00:50:10;99236.04;;;13.00;69.88
34235;BME280;20500;49.856;20.290;2022-09-01T00:53:15;99232.40;;;12.99;69.90
34235;BME280;20500;49.856;20.290;2022-09-01T00:56:19;99229.67;;;12.99;70.09
34235;BME280;20500;49.856;20.290;2022-09-01T00:59:24;99230.67;;;12.98;70.07
34235;BME280;20500;49.856;20.290;2022-09-01T01:02:29;99228.67;;;12.97;70.10
34235;BME280;20500;49.856;20.290;2022-09-01T01:05:33;99226.55;;;12.95;70.06
34235;BME280;20500;49.856;20.290;2022-09-01T01:08:42;99225.04;;;12.91;70.15
34235;BME280;20500;49.856;20.290;2022-09-01T01:11:59;99222.89;;;12.88;70.26
34235;BME280;20500;49.856;20.290;2022-09-01T01:15:04;99223.27;;;12.86;70.01
34235;BME280;20500;49.856;20.290;2022-09-01T01:18:09;99225.67;;;12.84;70.16
34235;BME280;20500;49.856;20.290;2022-09-01T01:21:16;99236.26;;;12.83;70.13
34235;BME280;20500;49.856;20.290;2022-09-01T01:24:38;99231.58;;;12.78;70.25
34235;BME280;20500;49.856;20.290;2022-09-01T01:27:44;99231.20;;;12.74;70.35
34235;BME280;20500;49.856;20.290;2022-09-01T01:30:49;99231.10;;;12.70;70.46
34235;BME280;20500;49.856;20.290;2022-09-01T01:33:55;99231.20;;;12.71;70.48
34235;BME280;20500;49.856;20.290;2022-09-01T01:37:00;99229.81;;;12.71;70.55
34235;BME280;20500;49.856;20.290;2022-09-01T01:40:06;99224.84;;;12.66;70.61
34235;BME280;20500;49.856;20.290;2022-09-01T01:43:17;99218.23;;;12.62;70.50
34235;BME280;20500;49.856;20.290;2022-09-01T01:46:24;99217.64;;;12.61;70.50
34235;BME280;20500;49.856;20.290;2022-09-01T01:49:28;99215.61;;;12.60;70.47
34235;BME280;20500;49.856;20.290;2022-09-01T01:52:32;99223.23;;;12.57;70.50
34235;BME280;20500;49.856;20.290;2022-09-01T01:55:40;99224.80;;;12.57;70.54
34235;BME280;20500;49.856;20.290;2022-09-01T01:58:45;99222.16;;;12.54;70.45
34235;BME280;20500;49.856;20.290;2022-09-01T02:01:50;99221.16;;;12.51;70.72
34235;BME280;20500;49.856;20.290;2022-09-01T02:04:55;99220.54;;;12.47;70.63
34235;BME280;20500;49.856;20.290;2022-09-01T02:08:00;99217.77;;;12.46;70.60
34235;BME280;20500;49.856;20.290;2022-09-01T02:11:06;99218.46;;;12.43;70.71
34235;BME280;20500;49.856;20.290;2022-09-01T02:14:11;99221.00;;;12.42;70.73
34235;BME280;20500;49.856;20.290;2022-09-01T02:17:17;99221.19;;;12.40;70.82
34235;BME280;20500;49.856;20.290;2022-09-01T02:20:23;99218.44;;;12.39;70.80
34235;BME280;20500;49.856;20.290;2022-09-01T02:23:30;99216.30;;;12.39;70.99
34235;BME280;20500;49.856;20.290;2022-09-01T02:26:36;99222.55;;;12.41;71.08
34235;BME280;20500;49.856;20.290;2022-09-01T02:29:41;99216.92;;;12.41;70.98
34235;BME280;20500;49.856;20.290;2022-09-01T02:32:45;99215.05;;;12.40;70.95
34235;BME280;20500;49.856;20.290;2022-09-01T02:35:50;99216.30;;;12.39;71.11
34235;BME280;20500;49.856;20.290;2022-09-01T02:38:54;99216.36;;;12.37;71.09
34235;BME280;20500;49.856;20.290;2022-09-01T02:42:00;99217.01;;;12.36;70.84
34235;BME280;20500;49.856;20.290;2022-09-01T02:45:05;99221.61;;;12.34;70.91
34235;BME280;20500;49.856;20.290;2022-09-01T02:48:19;99220.70;;;12.31;71.11
34235;BME280;20500;49.856;20.290;2022-09-01T02:51:26;99220.12;;;12.29;71.01
34235;BME280;20500;49.856;20.290;2022-09-01T02:54:31;99217.48;;;12.26;71.13
34235;BME280;20500;49.856;20.290;2022-09-01T02:57:35;99217.15;;;12.26;71.10
34235;BME280;20500;49.856;20.290;2022-09-01T03:00:39;99218.83;;;12.27;71.00
34235;BME280;20500;49.856;20.290;2022-09-01T03:03:43;99218.91;;;12.26;71.08
34235;BME280;20500;49.856;20.290;2022-09-01T03:06:47;99220.96;;;12.26;71.23
34235;BME280;20500;49.856;20.290;2022-09-01T03:09:52;99224.56;;;12.22;71.23
34235;BME280;20500;49.856;20.290;2022-09-01T03:12:56;99224.81;;;12.21;71.22
34235;BME280;20500;49.856;20.290;2022-09-01T03:16:02;99226.31;;;12.21;71.19
34235;BME280;20500;49.856;20.290;2022-09-01T03:19:07;99221.91;;;12.19;71.27
34235;BME280;20500;49.856;20.290;2022-09-01T03:22:11;99223.64;;;12.19;71.21
34235;BME280;20500;49.856;20.290;2022-09-01T03:25:15;99222.02;;;12.17;71.25
34235;BME280;20500;49.856;20.290;2022-09-01T03:28:20;99219.29;;;12.14;71.34
34235;BME280;20500;49.856;20.290;2022-09-01T03:31:24;99219.62;;;12.13;71.39
34235;BME280;20500;49.856;20.290;2022-09-01T03:34:33;99215.90;;;12.12;71.38
34235;BME280;20500;49.856;20.290;2022-09-01T03:37:38;99215.92;;;12.11;71.45
34235;BME280;20500;49.856;20.290;2022-09-01T03:40:46;99216.79;;;12.09;71.44
34235;BME280;20500;49.856;20.290;2022-09-01T03:43:51;99217.61;;;12.09;71.53
34235;BME280;20500;49.856;20.290;2022-09-01T03:46:59;99217.59;;;12.07;71.28
34235;BME280;20500;49.856;20.290;2022-09-01T03:50:04;99219.23;;;12.05;71.40
34235;BME280;20500;49.856;20.290;2022-09-01T03:53:09;99217.45;;;12.03;71.19
34235;BME280;20500;49.856;20.290;2022-09-01T03:56:13;99212.73;;;12.00;71.49
34235;BME280;20500;49.856;20.290;2022-09-01T03:59:18;99211.95;;;11.96;71.54
34235;BME280;20500;49.856;20.290;2022-09-01T04:02:24;99212.39;;;11.93;71.52
34235;BME280;20500;49.856;20.290;2022-09-01T04:05:31;99211.30;;;11.92;71.47
34235;BME280;20500;49.856;20.290;2022-09-01T04:08:36;99208.42;;;11.92;71.51
34235;BME280;20500;49.856;20.290;2022-09-01T04:11:41;99208.14;;;11.91;71.49
34235;BME280;20500;49.856;20.290;2022-09-01T04:14:48;99212.15;;;11.91;71.53
34235;BME280;20500;49.856;20.290;2022-09-01T04:17:52;99213.15;;;11.90;71.64
34235;BME280;20500;49.856;20.290;2022-09-01T04:21:12;99210.23;;;11.89;71.67
34235;BME280;20500;49.856;20.290;2022-09-01T04:24:16;99206.75;;;11.86;71.83
34235;BME280;20500;49.856;20.290;2022-09-01T04:27:20;99214.32;;;11.87;71.90
34235;BME280;20500;49.856;20.290;2022-09-01T04:30:28;99219.27;;;11.85;71.96
34235;BME280;20500;49.856;20.290;2022-09-01T04:33:36;99222.39;;;11.83;71.94
34235;BME280;20500;49.856;20.290;2022-09-01T04:36:42;99223.88;;;11.75;72.01
34235;BME280;20500;49.856;20.290;2022-09-01T04:39:49;99221.48;;;11.69;72.24
34235;BME280;20500;49.856;20.290;2022-09-01T04:42:58;99224.58;;;11.74;72.40
34235;BME280;20500;49.856;20.290;2022-09-01T04:46:02;99228.34;;;11.79;72.25
34235;BME280;20500;49.856;20.290;2022-09-01T04:49:07;99233.87;;;11.83;72.16
34235;BME280;20500;49.856;20.290;2022-09-01T04:52:15;99231.99;;;11.85;72.39
34235;BME280;20500;49.856;20.290;2022-09-01T04:55:19;99235.80;;;11.86;72.25
34235;BME280;20500;49.856;20.290;2022-09-01T04:58:23;99237.50;;;11.88;72.28
34235;BME280;20500;49.856;20.290;2022-09-01T05:01:27;99237.15;;;11.87;72.31
34235;BME280;20500;49.856;20.290;2022-09-01T05:04:31;99237.91;;;11.87;72.20
34235;BME280;20500;49.856;20.290;2022-09-01T05:07:35;99238.80;;;11.87;72.21
34235;BME280;20500;49.856;20.290;2022-09-01T05:10:41;99240.78;;;11.89;72.35
34235;BME280;20500;49.856;20.290;2022-09-01T05:13:46;99238.22;;;11.89;72.29
34235;BME280;20500;49.856;20.290;2022-09-01T05:16:51;99239.36;;;11.90;72.34
34235;BME280;20500;49.856;20.290;2022-09-01T05:19:58;99240.59;;;11.92;72.51
34235;BME280;20500;49.856;20.290;2022-09-01T05:23:03;99245.88;;;11.95;72.48
34235;BME280;20500;49.856;20.290;2022-09-01T05:26:12;99248.12;;;11.99;72.51
34235;BME280;20500;49.856;20.290;2022-09-01T05:29:19;99247.63;;;12.03;72.51
34235;BME280;20500;49.856;20.290;2022-09-01T05:32:23;99252.89;;;12.06;72.61
34235;BME280;20500;49.856;20.290;2022-09-01T05:35:28;99254.52;;;12.12;72.59
34235;BME280;20500;49.856;20.290;2022-09-01T05:38:34;99249.07;;;12.17;72.59
34235;BME280;20500;49.856;20.290;2022-09-01T05:41:38;99247.85;;;12.23;72.67
34235;BME280;20500;49.856;20.290;2022-09-01T05:44:42;99245.79;;;12.30;72.87
34235;BME280;20500;49.856;20.290;2022-09-01T05:47:46;99240.39;;;12.38;72.89
34235;BME280;20500;49.856;20.290;2022-09-01T05:50:51;99239.65;;;12.48;72.93
34235;BME280;20500;49.856;20.290;2022-09-01T05:54:01;99242.69;;;12.62;73.22
34235;BME280;20500;49.856;20.290;2022-09-01T05:57:08;99241.26;;;12.72;73.01
34235;BME280;20500;49.856;20.290;2022-09-01T06:00:32;99251.17;;;12.83;72.98
34235;BME280;20500;49.856;20.290;2022-09-01T06:03:40;99250.97;;;12.90;72.93
34235;BME280;20500;49.856;20.290;2022-09-01T06:06:47;99254.96;;;13.02;72.97
34235;BME280;20500;49.856;20.290;2022-09-01T06:10:09;99252.95;;;13.09;72.88
34235;BME280;20500;49.856;20.290;2022-09-01T06:13:14;99253.93;;;13.16;72.97
34235;BME280;20500;49.856;20.290;2022-09-01T06:16:19;99256.66;;;13.26;72.88
34235;BME280;20500;49.856;20.290;2022-09-01T06:19:23;99261.96;;;13.36;72.93
34235;BME280;20500;49.856;20.290;2022-09-01T06:22:28;99266.31;;;13.48;72.88
34235;BME280;20500;49.856;20.290;2022-09-01T06:25:32;99270.98;;;13.60;73.22
34235;BME280;20500;49.856;20.290;2022-09-01T06:28:40;99274.45;;;13.71;73.09
34235;BME280;20500;49.856;20.290;2022-09-01T06:31:44;99276.19;;;13.83;73.30
34235;BME280;20500;49.856;20.290;2022-09-01T06:34:49;99273.34;;;13.97;73.31
34235;BME280;20500;49.856;20.290;2022-09-01T06:37:53;99268.21;;;14.11;73.04
34235;BME280;20500;49.856;20.290;2022-09-01T06:41:01;99268.14;;;14.24;73.03
34235;BME280;20500;49.856;20.290;2022-09-01T06:44:06;99272.38;;;14.33;72.76
34235;BME280;20500;49.856;20.290;2022-09-01T06:47:16;99277.48;;;14.42;72.90
34235;BME280;20500;49.856;20.290;2022-09-01T06:50:21;99280.11;;;14.55;72.91
34235;BME280;20500;49.856;20.290;2022-09-01T06:53:46;99272.81;;;14.80;73.05
34235;BME280;20500;49.856;20.290;2022-09-01T06:56:52;99278.64;;;15.04;72.83
34235;BME280;20500;49.856;20.290;2022-09-01T06:59:57;99280.90;;;15.31;72.60
34235;BME280;20500;49.856;20.290;2022-09-01T07:03:01;99285.90;;;15.59;72.75
34235;BME280;20500;49.856;20.290;2022-09-01T07:06:11;99286.79;;;15.91;72.59
34235;BME280;20500;49.856;20.290;2022-09-01T07:09:36;99281.55;;;16.29;72.48
34235;BME280;20500;49.856;20.290;2022-09-01T07:13:00;99277.15;;;16.51;71.59
34235;BME280;20500;49.856;20.290;2022-09-01T07:16:07;99285.30;;;16.56;71.04
34235;BME280;20500;49.856;20.290;2022-09-01T07:19:31;99279.59;;;16.56;70.94
34235;BME280;20500;49.856;20.290;2022-09-01T07:22:53;99277.28;;;16.48;70.62
34235;BME280;20500;49.856;20.290;2022-09-01T07:26:06;99271.34;;;16.41;70.77
34235;BME280;20500;49.856;20.290;2022-09-01T07:29:11;99271.14;;;16.39;70.69
34235;BME280;20500;49.856;20.290;2022-09-01T07:32:16;99268.76;;;16.43;70.51
34235;BME280;20500;49.856;20.290;2022-09-01T07:35:42;99270.94;;;16.51;70.40
34235;BME280;20500;49.856;20.290;2022-09-01T07:39:06;99272.77;;;16.71;70.58
34235;BME280;20500;49.856;20.290;2022-09-01T07:42:30;99266.74;;;16.94;70.57
34235;BME280;20500;49.856;20.290;2022-09-01T07:45:55;99268.41;;;17.20;70.11
34235;BME280;20500;49.856;20.290;2022-09-01T07:49:02;99267.91;;;17.44;69.88
34235;BME280;20500;49.856;20.290;2022-09-01T07:52:27;99273.42;;;17.69;69.70
34235;BME280;20500;49.856;20.290;2022-09-01T07:55:33;99269.05;;;17.80;69.02
34235;BME280;20500;49.856;20.290;2022-09-01T07:58:37;99267.64;;;17.86;68.65
34235;BME280;20500;49.856;20.290;2022-09-01T08:01:43;99263.98;;;17.98;68.87
34235;BME280;20500;49.856;20.290;2022-09-01T08:04:48;99265.33;;;18.16;68.74
34235;BME280;20500;49.856;20.290;2022-09-01T08:07:52;99259.77;;;18.24;68.21
34235;BME280;20500;49.856;20.290;2022-09-01T08:10:57;99258.39;;;18.34;68.16
34235;BME280;20500;49.856;20.290;2022-09-01T08:14:08;99261.57;;;18.37;67.75
34235;BME280;20500;49.856;20.290;2022-09-01T08:17:12;99258.96;;;18.31;67.32
34235;BME280;20500;49.856;20.290;2022-09-01T08:20:36;99259.17;;;18.31;67.59
34235;BME280;20500;49.856;20.290;2022-09-01T08:23:41;99261.86;;;18.29;67.10
34235;BME280;20500;49.856;20.290;2022-09-01T08:26:46;99263.67;;;18.08;66.84
34235;BME280;20500;49.856;20.290;2022-09-01T08:29:50;99261.36;;;17.97;66.95
34235;BME280;20500;49.856;20.290;2022-09-01T08:32:54;99262.20;;;17.96;66.89
34235;BME280;20500;49.856;20.290;2022-09-01T08:35:59;99264.27;;;18.04;66.88
34235;BME280;20500;49.856;20.290;2022-09-01T08:39:03;99262.24;;;18.11;66.62
34235;BME280;20500;49.856;20.290;2022-09-01T08:42:10;99263.27;;;18.19;66.36
34235;BME280;20500;49.856;20.290;2022-09-01T08:45:21;99269.10;;;18.18;65.79
34235;BME280;20500;49.856;20.290;2022-09-01T08:48:29;99268.62;;;18.19;65.83
34235;BME280;20500;49.856;20.290;2022-09-01T08:51:55;99267.03;;;18.30;66.03
34235;BME280;20500;49.856;20.290;2022-09-01T08:55:04;99264.64;;;18.47;65.77
34235;BME280;20500;49.856;20.290;2022-09-01T08:58:13;99269.48;;;18.41;65.38
34235;BME280;20500;49.856;20.290;2022-09-01T09:01:19;99269.90;;;18.30;65.20
34235;BME280;20500;49.856;20.290;2022-09-01T09:04:36;99271.27;;;18.25;64.71
34235;BME280;20500;49.856;20.290;2022-09-01T09:07:46;99271.06;;;18.20;64.77
34235;BME280;20500;49.856;20.290;2022-09-01T09:10:56;99265.25;;;18.29;64.83
34235;BME280;20500;49.856;20.290;2022-09-01T09:14:03;99262.38;;;18.49;64.71
34235;BME280;20500;49.856;20.290;2022-09-01T09:17:13;99264.61;;;18.61;64.36
34235;BME280;20500;49.856;20.290;2022-09-01T09:20:19;99263.44;;;18.56;63.96
34235;BME280;20500;49.856;20.290;2022-09-01T09:23:25;99260.70;;;18.51;63.63
34235;BME280;20500;49.856;20.290;2022-09-01T09:26:32;99257.38;;;18.53;63.75
34235;BME280;20500;49.856;20.290;2022-09-01T09:29:52;99258.70;;;18.55;63.11
34235;BME280;20500;49.856;20.290;2022-09-01T09:32:57;99256.60;;;18.57;62.84
34235;BME280;20500;49.856;20.290;2022-09-01T09:36:23;99256.49;;;18.59;62.16
34235;BME280;20500;49.856;20.290;2022-09-01T09:39:31;99255.73;;;18.61;62.29
34235;BME280;20500;49.856;20.290;2022-09-01T09:42:35;99256.98;;;18.67;62.16
34235;BME280;20500;49.856;20.290;2022-09-01T09:45:41;99258.91;;;18.72;61.87
34235;BME280;20500;49.856;20.290;2022-09-01T09:48:45;99259.31;;;18.74;61.67
34235;BME280;20500;49.856;20.290;2022-09-01T09:51:50;99261.27;;;18.77;61.55
34235;BME280;20500;49.856;20.290;2022-09-01T09:54:59;99255.31;;;18.71;61.42
34235;BME280;20500;49.856;20.290;2022-09-01T09:58:09;99249.77;;;18.88;61.34
34235;BME280;20500;49.856;20.290;2022-09-01T10:01:27;99248.55;;;19.01;60.84
34235;BME280;20500;49.856;20.290;2022-09-01T10:04:33;99249.46;;;19.06;60.25
34235;BME280;20500;49.856;20.290;2022-09-01T10:07:38;99246.30;;;19.07;60.14
34235;BME280;20500;49.856;20.290;2022-09-01T10:10:43;99243.60;;;19.15;59.96
34235;BME280;20500;49.856;20.290;2022-09-01T10:14:00;99238.55;;;19.26;59.70
34235;BME280;20500;49.856;20.290;2022-09-01T10:17:09;99239.82;;;19.38;59.39
34235;BME280;20500;49.856;20.290;2022-09-01T10:20:17;99237.05;;;19.53;59.14
34235;BME280;20500;49.856;20.290;2022-09-01T10:23:23;99236.81;;;19.64;59.22
34235;BME280;20500;49.856;20.290;2022-09-01T10:26:34;99229.32;;;19.76;59.00
34235;BME280;20500;49.856;20.290;2022-09-01T10:29:40;99231.08;;;20.07;58.79
34235;BME280;20500;49.856;20.290;2022-09-01T10:32:50;99230.23;;;20.22;58.20
34235;BME280;20500;49.856;20.290;2022-09-01T10:35:58;99232.29;;;20.35;58.00
34235;BME280;20500;49.856;20.290;2022-09-01T10:39:02;99236.46;;;20.22;57.50
34235;BME280;20500;49.856;20.290;2022-09-01T10:42:16;99235.02;;;20.05;57.56
34235;BME280;20500;49.856;20.290;2022-09-01T10:45:31;99234.63;;;19.98;57.36
34235;BME280;20500;49.856;20.290;2022-09-01T10:48:36;99233.20;;;19.87;57.32
34235;BME280;20500;49.856;20.290;2022-09-01T10:51:57;99227.71;;;19.73;57.59
34235;BME280;20500;49.856;20.290;2022-09-01T10:55:10;99228.02;;;19.60;57.22
34235;BME280;20500;49.856;20.290;2022-09-01T11:02:11;99225.70;;;19.31;57.05
34235;BME280;20500;49.856;20.290;2022-09-01T11:08:57;99219.62;;;19.08;56.86
34235;BME280;20500;49.856;20.290;2022-09-01T11:15:35;99209.89;;;19.23;57.35
34235;BME280;20500;49.856;20.290;2022-09-01T11:18:40;99209.10;;;19.61;56.98
34235;BME280;20500;49.856;20.290;2022-09-01T11:21:46;99200.01;;;19.99;56.99
34235;BME280;20500;49.856;20.290;2022-09-01T11:25:04;99201.92;;;20.27;56.30
34235;BME280;20500;49.856;20.290;2022-09-01T11:31:40;99207.36;;;20.00;55.80
34235;BME280;20500;49.856;20.290;2022-09-01T11:34:46;99211.86;;;19.80;55.42
34235;BME280;20500;49.856;20.290;2022-09-01T11:37:52;99209.97;;;19.56;55.55
34235;BME280;20500;49.856;20.290;2022-09-01T11:40:57;99209.67;;;19.38;55.47
34235;BME280;20500;49.856;20.290;2022-09-01T11:44:02;99208.09;;;19.27;55.34
34235;BME280;20500;49.856;20.290;2022-09-01T11:47:14;99212.47;;;19.19;55.28
34235;BME280;20500;49.856;20.290;2022-09-01T11:50:20;99210.42;;;19.04;54.87
34235;BME280;20500;49.856;20.290;2022-09-01T11:53:25;99207.64;;;18.96;55.18
34235;BME280;20500;49.856;20.290;2022-09-01T11:56:30;99206.45;;;18.98;55.22
34235;BME280;20500;49.856;20.290;2022-09-01T11:59:34;99207.33;;;18.98;55.02
34235;BME280;20500;49.856;20.290;2022-09-01T12:02:43;99210.38;;;19.01;54.83
34235;BME280;20500;49.856;20.290;2022-09-01T12:05:51;99208.83;;;19.05;54.77
34235;BME280;20500;49.856;20.290;2022-09-01T12:08:57;99205.84;;;19.07;54.63
34235;BME280;20500;49.856;20.290;2022-09-01T12:12:05;99203.70;;;19.11;54.47
34235;BME280;20500;49.856;20.290;2022-09-01T12:15:10;99202.04;;;19.17;54.38
34235;BME280;20500;49.856;20.290;2022-09-01T12:18:22;99197.56;;;19.15;54.34
34235;BME280;20500;49.856;20.290;2022-09-01T12:21:27;99195.96;;;19.27;54.58
34235;BME280;20500;49.856;20.290;2022-09-01T12:24:33;99190.06;;;19.38;54.33
34235;BME280;20500;49.856;20.290;2022-09-01T12:27:37;99182.59;;;19.59;54.24
34235;BME280;20500;49.856;20.290;2022-09-01T12:30:41;99181.83;;;19.97;54.24
34235;BME280;20500;49.856;20.290;2022-09-01T12:33:46;99182.92;;;20.22;53.61
34235;BME280;20500;49.856;20.290;2022-09-01T12:37:02;99175.34;;;20.35;53.24
34235;BME280;20500;49.856;20.290;2022-09-01T12:40:19;99175.16;;;20.54;53.50
34235;BME280;20500;49.856;20.290;2022-09-01T12:43:31;99169.73;;;20.75;53.17
34235;BME280;20500;49.856;20.290;2022-09-01T12:46:42;99168.27;;;20.96;52.95
34235;BME280;20500;49.856;20.290;2022-09-01T12:49:48;99172.36;;;21.23;52.73
34235;BME280;20500;49.856;20.290;2022-09-01T12:52:54;99171.86;;;21.32;52.57
34235;BME280;20500;49.856;20.290;2022-09-01T12:59:21;99170.60;;;20.96;51.60
34235;BME280;20500;49.856;20.290;2022-09-01T13:02:40;99168.02;;;20.72;51.73
34235;BME280;20500;49.856;20.290;2022-09-01T13:05:45;99169.28;;;20.55;51.23
34235;BME280;20500;49.856;20.290;2022-09-01T13:08:53;99166.71;;;20.45;51.58
34235;BME280;20500;49.856;20.290;2022-09-01T13:12:12;99174.21;;;20.37;51.47
34235;BME280;20500;49.856;20.290;2022-09-01T13:15:19;99171.44;;;20.24;51.31
34235;BME280;20500;49.856;20.290;2022-09-01T13:18:23;99171.71;;;20.12;51.19
34235;BME280;20500;49.856;20.290;2022-09-01T13:21:28;99174.10;;;20.05;51.00
34235;BME280;20500;49.856;20.290;2022-09-01T13:24:32;99176.30;;;19.94;51.02
34235;BME280;20500;49.856;20.290;2022-09-01T13:27:36;99176.02;;;19.90;51.39
34235;BME280;20500;49.856;20.290;2022-09-01T13:30:47;99175.09;;;19.90;51.16
34235;BME280;20500;49.856;20.290;2022-09-01T13:34:15;99172.72;;;19.97;51.17
34235;BME280;20500;49.856;20.290;2022-09-01T13:37:25;99176.28;;;20.13;50.91
34235;BME280;20500;49.856;20.290;2022-09-01T13:40:29;99174.55;;;20.27;50.15
34235;BME280;20500;49.856;20.290;2022-09-01T13:43:33;99167.13;;;20.44;50.43
34235;BME280;20500;49.856;20.290;2022-09-01T13:46:42;99162.92;;;20.64;50.41
34235;BME280;20500;49.856;20.290;2022-09-01T13:50:07;99165.46;;;20.80;49.94
34235;BME280;20500;49.856;20.290;2022-09-01T13:53:14;99162.50;;;20.81;49.73
34235;BME280;20500;49.856;20.290;2022-09-01T13:56:18;99163.92;;;20.92;49.45
34235;BME280;20500;49.856;20.290;2022-09-01T13:59:22;99162.41;;;20.94;49.07
34235;BME280;20500;49.856;20.290;2022-09-01T14:02:26;99161.21;;;21.01;49.00
34235;BME280;20500;49.856;20.290;2022-09-01T14:05:31;99157.96;;;21.07;48.93
34235;BME280;20500;49.856;20.290;2022-09-01T14:08:36;99166.13;;;21.14;49.18
34235;BME280;20500;49.856;20.290;2022-09-01T14:11:40;99163.80;;;21.14;48.17
34235;BME280;20500;49.856;20.290;2022-09-01T14:14:44;99165.47;;;21.06;48.00
34235;BME280;20500;49.856;20.290;2022-09-01T14:18:08;99163.75;;;21.01;48.13
34235;BME280;20500;49.856;20.290;2022-09-01T14:21:12;99164.91;;;20.95;47.75
34235;BME280;20500;49.856;20.290;2022-09-01T14:24:17;99157.95;;;20.86;47.24
34235;BME280;20500;49.856;20.290;2022-09-01T14:27:22;99161.63;;;20.73;47.08
34235;BME280;20500;49.856;20.290;2022-09-01T14:30:27;99156.15;;;20.54;46.37
34235;BME280;20500;49.856;20.290;2022-09-01T14:33:33;99150.45;;;20.46;46.66
34235;BME280;20500;49.856;20.290;2022-09-01T14:36:37;99153.52;;;20.41;46.62
34235;BME280;20500;49.856;20.290;2022-09-01T14:39:41;99155.81;;;20.37;46.59
34235;BME280;20500;49.856;20.290;2022-09-01T14:42:46;99149.17;;;20.32;46.48
34235;BME280;20500;49.856;20.290;2022-09-01T14:46:00;99152.39;;;20.25;46.02
34235;BME280;20500;49.856;20.290;2022-09-01T14:49:06;99151.38;;;20.17;46.04
34235;BME280;20500;49.856;20.290;2022-09-01T14:52:11;99150.36;;;20.13;45.73
34235;BME280;20500;49.856;20.290;2022-09-01T14:55:16;99147.42;;;20.10;45.56
34235;BME280;20500;49.856;20.290;2022-09-01T14:58:20;99151.94;;;20.10;45.37
34235;BME280;20500;49.856;20.290;2022-09-01T15:01:24;99147.60;;;20.06;45.24
34235;BME280;20500;49.856;20.290;2022-09-01T15:04:36;99151.98;;;20.04;45.24
34235;BME280;20500;49.856;20.290;2022-09-01T15:07:41;99151.52;;;20.03;45.12
34235;BME280;20500;49.856;20.290;2022-09-01T15:10:45;99149.94;;;19.97;44.82
34235;BME280;20500;49.856;20.290;2022-09-01T15:13:49;99146.89;;;19.96;44.79
34235;BME280;20500;49.856;20.290;2022-09-01T15:16:54;99150.20;;;19.96;44.59
34235;BME280;20500;49.856;20.290;2022-09-01T15:19:58;99152.20;;;19.91;44.31
34235;BME280;20500;49.856;20.290;2022-09-01T15:23:23;99153.76;;;19.85;44.29
34235;BME280;20500;49.856;20.290;2022-09-01T15:26:28;99152.86;;;19.82;44.29
34235;BME280;20500;49.856;20.290;2022-09-01T15:29:32;99151.91;;;19.82;44.00
34235;BME280;20500;49.856;20.290;2022-09-01T15:32:38;99154.46;;;19.85;44.12
34235;BME280;20500;49.856;20.290;2022-09-01T15:35:42;99157.25;;;19.85;44.15
34235;BME280;20500;49.856;20.290;2022-09-01T15:38:46;99160.66;;;19.85;43.95
34235;BME280;20500;49.856;20.290;2022-09-01T15:41:51;99162.21;;;19.87;43.87
34235;BME280;20500;49.856;20.290;2022-09-01T15:44:55;99162.09;;;19.89;44.04
34235;BME280;20500;49.856;20.290;2022-09-01T15:47:59;99166.17;;;19.94;43.79
34235;BME280;20500;49.856;20.290;2022-09-01T15:51:21;99163.40;;;19.93;43.74
34235;BME280;20500;49.856;20.290;2022-09-01T15:54:32;99161.25;;;19.93;43.71
34235;BME280;20500;49.856;20.290;2022-09-01T15:57:39;99163.98;;;19.95;43.68
34235;BME280;20500;49.856;20.290;2022-09-01T16:00:43;99167.63;;;19.95;43.76
34235;BME280;20500;49.856;20.290;2022-09-01T16:03:48;99162.94;;;19.92;43.43
34235;BME280;20500;49.856;20.290;2022-09-01T16:06:52;99171.08;;;19.89;43.58
34235;BME280;20500;49.856;20.290;2022-09-01T16:09:58;99170.63;;;19.86;43.47
34235;BME280;20500;49.856;20.290;2022-09-01T16:13:03;99174.61;;;19.77;43.33
34235;BME280;20500;49.856;20.290;2022-09-01T16:16:10;99173.39;;;19.68;43.52
34235;BME280;20500;49.856;20.290;2022-09-01T16:19:22;99170.89;;;19.59;43.52
34235;BME280;20500;49.856;20.290;2022-09-01T16:22:30;99170.12;;;19.55;43.70
34235;BME280;20500;49.856;20.290;2022-09-01T16:25:36;99174.40;;;19.49;43.63
34235;BME280;20500;49.856;20.290;2022-09-01T16:28:40;99173.35;;;19.43;43.63
34235;BME280;20500;49.856;20.290;2022-09-01T16:31:45;99174.81;;;19.34;43.49
34235;BME280;20500;49.856;20.290;2022-09-01T16:34:51;99177.23;;;19.23;43.61
34235;BME280;20500;49.856;20.290;2022-09-01T16:37:58;99178.53;;;19.13;43.77